createdAt,value
2023-03-23T00:01:40.862Z,1001.54
2023-03-23T00:03:25.960Z,1001.47
2023-03-23T00:05:10.863Z,1001.36
2023-03-23T00:06:56.589Z,1001.27
2023-03-23T00:08:40.967Z,1001.26
2023-03-23T00:10:25.883Z,1001.42
2023-03-23T00:12:10.898Z,1001.34
2023-03-23T00:13:55.933Z,1001.3
2023-03-23T00:15:41.355Z,1001.31
2023-03-23T00:17:25.887Z,1001.27
2023-03-23T00:19:10.935Z,1001.24
2023-03-23T00:20:55.905Z,1001.26
2023-03-23T00:22:40.899Z,1001.24
2023-03-23T00:24:25.909Z,1001.14
2023-03-23T00:26:11.189Z,1001.23
2023-03-23T00:27:55.898Z,1001.15
2023-03-23T00:29:40.970Z,1001.21
2023-03-23T00:31:26.215Z,1001.22
2023-03-23T00:33:10.887Z,1001.22
2023-03-23T00:34:55.947Z,1001.27
2023-03-23T00:36:41.892Z,1001.23
2023-03-23T00:38:25.899Z,1001.25
2023-03-23T00:40:11.049Z,1001.27
2023-03-23T00:41:56.236Z,1001.17
2023-03-23T00:43:40.920Z,1001.3
2023-03-23T00:45:25.974Z,1001.18
2023-03-23T00:47:11.235Z,1001.12
2023-03-23T00:48:55.933Z,1001.05
2023-03-23T00:50:40.948Z,1001.01
2023-03-23T00:52:25.922Z,1001.09
2023-03-23T00:54:10.939Z,1001
2023-03-23T00:55:55.980Z,1001.03
2023-03-23T00:57:40.925Z,1001.12
2023-03-23T00:59:25.958Z,1000.98
2023-03-23T01:01:11.012Z,1001.05
2023-03-23T01:02:55.921Z,1001.08
2023-03-23T01:04:40.944Z,1001.21
2023-03-23T01:06:26.956Z,1001.27
2023-03-23T01:08:10.928Z,1001.24
2023-03-23T01:09:55.976Z,1001.27
2023-03-23T01:11:40.981Z,1001.24
2023-03-23T01:13:25.943Z,1001.18
2023-03-23T01:15:10.940Z,1001.15
2023-03-23T01:16:56.061Z,1001.15
2023-03-23T01:18:40.953Z,1001.08
2023-03-23T01:20:26.263Z,1000.97
2023-03-23T01:22:11.023Z,1000.91
2023-03-23T01:23:55.953Z,1000.85
2023-03-23T01:25:41.354Z,1000.75
2023-03-23T01:27:25.988Z,1000.67
2023-03-23T01:29:10.964Z,1000.68
2023-03-23T01:30:55.978Z,1000.74
2023-03-23T01:32:41.099Z,1000.77
2023-03-23T01:34:26.003Z,1000.68
2023-03-23T01:36:10.970Z,1000.7
2023-03-23T01:37:56.006Z,1000.63
2023-03-23T01:39:40.976Z,1000.5
2023-03-23T01:41:25.971Z,1000.44
2023-03-23T01:43:11.313Z,1000.48
2023-03-23T01:44:55.995Z,1000.42
2023-03-23T01:46:40.978Z,1000.47
2023-03-23T01:48:26.049Z,1000.57
2023-03-23T01:50:10.999Z,1000.61
2023-03-23T01:51:56.013Z,1000.68
2023-03-23T01:53:41.089Z,1000.4
2023-03-23T01:55:26.005Z,1000.51
2023-03-23T01:57:11.026Z,1000.55
2023-03-23T01:58:56.058Z,1000.52
2023-03-23T02:00:41.386Z,1000.7
2023-03-23T02:02:26.300Z,1000.69
2023-03-23T02:04:11.116Z,1000.57
2023-03-23T02:05:56.008Z,1000.38
2023-03-23T02:07:41.014Z,1000.57
2023-03-23T02:09:26.113Z,1000.54
2023-03-23T02:11:11.022Z,1000.61
2023-03-23T02:12:56.029Z,1000.46
2023-03-23T02:14:41.112Z,1000.52
2023-03-23T02:16:26.045Z,1000.36
2023-03-23T02:18:11.047Z,1000.31
2023-03-23T02:19:56.120Z,1000.28
2023-03-23T02:21:41.048Z,1000.32
2023-03-23T02:23:26.046Z,1000.39
2023-03-23T02:25:11.047Z,1000.42
2023-03-23T02:26:56.083Z,1000.35
2023-03-23T02:28:41.030Z,1000.31
2023-03-23T02:30:26.089Z,1000.3
2023-03-23T02:32:11.354Z,1000.32
2023-03-23T02:33:56.070Z,1000.22
2023-03-23T02:35:41.347Z,1000.06
2023-03-23T02:37:26.097Z,1000.04
2023-03-23T02:39:11.077Z,999.98
2023-03-23T02:40:56.124Z,1000.03
2023-03-23T02:42:41.073Z,1000.01
2023-03-23T02:44:26.097Z,1000.2
2023-03-23T02:46:11.162Z,1000.07
2023-03-23T02:47:56.071Z,1000.24
2023-03-23T02:49:41.101Z,1000.21
2023-03-23T02:51:26.164Z,1000.11
2023-03-23T02:53:11.096Z,1000.19
2023-03-23T02:54:56.126Z,1000.14
2023-03-23T02:56:41.129Z,1000.14
2023-03-23T02:58:26.098Z,1000.1
2023-03-23T03:00:11.121Z,1000.12
2023-03-23T03:01:56.159Z,1000.16
2023-03-23T03:03:41.096Z,1000.2
2023-03-23T03:05:26.114Z,1000.2
2023-03-23T03:07:11.159Z,1000.18
2023-03-23T03:08:56.130Z,1000.24
2023-03-23T03:10:41.127Z,1000.26
2023-03-23T03:12:26.471Z,1000.24
2023-03-23T03:14:11.141Z,1000.19
2023-03-23T03:15:56.132Z,1000.11
2023-03-23T03:17:41.178Z,1000.03
2023-03-23T03:19:26.131Z,1000.07
2023-03-23T03:21:11.127Z,1000.04
2023-03-23T03:22:56.234Z,999.98
2023-03-23T03:24:41.148Z,1000.05
2023-03-23T03:26:26.148Z,999.95
2023-03-23T03:28:11.177Z,999.88
2023-03-23T03:29:56.141Z,999.94
2023-03-23T03:31:41.487Z,1000
2023-03-23T03:33:26.185Z,1000.02
2023-03-23T03:35:11.182Z,1000
2023-03-23T03:36:56.162Z,999.96
2023-03-23T03:38:41.229Z,1000.03
2023-03-23T03:40:26.147Z,999.96
2023-03-23T03:42:11.187Z,999.98
2023-03-23T03:43:56.276Z,1000
2023-03-23T03:45:41.190Z,999.97
2023-03-23T03:47:26.184Z,999.86
2023-03-23T03:49:11.203Z,1000
2023-03-23T03:50:56.199Z,1000.02
2023-03-23T03:52:41.160Z,1000.02
2023-03-23T03:54:26.215Z,999.99
2023-03-23T03:56:11.156Z,999.99
2023-03-23T03:57:56.473Z,1000.1
2023-03-23T03:59:41.240Z,1000.21
2023-03-23T04:01:26.192Z,1000.1
2023-03-23T04:03:11.196Z,1000.05
2023-03-23T04:04:56.222Z,999.99
2023-03-23T04:06:41.210Z,1000.1
2023-03-23T04:08:26.216Z,1000.11
2023-03-23T04:10:11.345Z,1000.11
2023-03-23T04:11:56.216Z,1000.04
2023-03-23T04:13:41.189Z,1000.04
2023-03-23T04:15:26.278Z,999.99
2023-03-23T04:17:11.205Z,1000.1
2023-03-23T04:18:56.203Z,1000.09
2023-03-23T04:20:41.283Z,1000.1
2023-03-23T04:22:26.222Z,1000.13
2023-03-23T04:24:23.038Z,1000.09
2023-03-23T04:25:56.312Z,1000.2
2023-03-23T04:27:41.231Z,1000.2
2023-03-23T04:29:26.225Z,1000.21
2023-03-23T04:31:11.945Z,1000.2
2023-03-23T04:32:56.233Z,1000.21
2023-03-23T04:34:41.214Z,1000.23
2023-03-23T04:36:26.617Z,1000.26
2023-03-23T04:38:11.235Z,1000.12
2023-03-23T04:39:56.248Z,1000.12
2023-03-23T04:41:41.646Z,1000.06
2023-03-23T04:43:26.239Z,1000.26
2023-03-23T04:45:11.246Z,1000.2
2023-03-23T04:46:56.355Z,1000.09
2023-03-23T04:48:41.228Z,1000.18
2023-03-23T04:50:26.267Z,1000.21
2023-03-23T04:52:11.258Z,1000.29
2023-03-23T04:53:56.262Z,1000.35
2023-03-23T04:55:41.417Z,1000.35
2023-03-23T04:57:26.399Z,1000.37
2023-03-23T04:59:11.575Z,1000.41
2023-03-23T05:00:56.295Z,1000.35
2023-03-23T05:02:41.318Z,1000.36
2023-03-23T05:04:26.300Z,1000.44
2023-03-23T05:06:11.250Z,1000.42
2023-03-23T05:07:58.174Z,1000.38
2023-03-23T05:09:41.271Z,1000.39
2023-03-23T05:11:26.265Z,1000.4
2023-03-23T05:13:11.321Z,1000.41
2023-03-23T05:14:56.293Z,1000.35
2023-03-23T05:16:41.255Z,1000.48
2023-03-23T05:18:26.349Z,1000.52
2023-03-23T05:20:11.321Z,1000.49
2023-03-23T05:21:56.291Z,1000.49
2023-03-23T05:23:41.334Z,1000.47
2023-03-23T05:25:26.302Z,1000.5
2023-03-23T05:27:11.298Z,1000.48
2023-03-23T05:28:56.347Z,1000.58
2023-03-23T05:30:41.302Z,1000.59
2023-03-23T05:32:26.296Z,1000.61
2023-03-23T05:34:11.356Z,1000.62
2023-03-23T05:35:56.352Z,1000.64
2023-03-23T05:37:41.289Z,1000.53
2023-03-23T05:39:26.323Z,1000.65
2023-03-23T05:41:11.311Z,1000.47
2023-03-23T05:42:56.319Z,1000.58
2023-03-23T05:44:41.379Z,1000.47
2023-03-23T05:46:26.325Z,1000.55
2023-03-23T05:48:11.304Z,1000.51
2023-03-23T05:49:56.326Z,1000.57
2023-03-23T05:51:41.329Z,1000.58
2023-03-23T05:53:26.327Z,1000.55
2023-03-23T05:55:11.367Z,1000.62
2023-03-23T05:56:56.338Z,1000.54
2023-03-23T05:58:41.638Z,1000.56
2023-03-23T06:00:26.387Z,1000.57
2023-03-23T06:02:11.337Z,1000.63
2023-03-23T06:03:57.230Z,1000.65
2023-03-23T06:05:41.504Z,1000.55
2023-03-23T06:07:26.635Z,1000.73
2023-03-23T06:09:11.354Z,1000.74
2023-03-23T06:10:56.366Z,1000.59
2023-03-23T06:12:41.368Z,1000.68
2023-03-23T06:14:26.361Z,1000.78
2023-03-23T06:16:11.445Z,1000.7
2023-03-23T06:17:56.355Z,1000.62
2023-03-23T06:19:41.402Z,1000.66
2023-03-23T06:21:26.390Z,1000.7
2023-03-23T06:23:11.362Z,1000.69
2023-03-23T06:24:56.387Z,1000.73
2023-03-23T06:26:41.378Z,1000.76
2023-03-23T06:28:26.386Z,1000.79
2023-03-23T06:30:11.425Z,1000.78
2023-03-23T06:31:56.450Z,1000.74
2023-03-23T06:33:41.368Z,1000.78
2023-03-23T06:35:26.379Z,1000.77
2023-03-23T06:37:11.419Z,1000.8
2023-03-23T06:38:56.389Z,1000.81
2023-03-23T06:40:41.383Z,1000.75
2023-03-23T06:42:26.732Z,1000.81
2023-03-23T06:44:11.380Z,1000.85
2023-03-23T06:45:56.399Z,1000.92
2023-03-23T06:47:41.457Z,1000.92
2023-03-23T06:49:26.396Z,1000.85
2023-03-23T06:51:11.421Z,1000.82
2023-03-23T06:52:57.099Z,1000.95
2023-03-23T06:54:42.043Z,1000.79
2023-03-23T06:56:26.418Z,1000.89
2023-03-23T06:58:11.462Z,1000.89
2023-03-23T06:59:56.438Z,1000.93
2023-03-23T07:01:41.438Z,1000.93
2023-03-23T07:03:26.520Z,1001.01
2023-03-23T07:05:11.420Z,1000.95
2023-03-23T07:06:56.440Z,1001.03
2023-03-23T07:08:41.490Z,1001.09
2023-03-23T07:10:26.412Z,1001.09
2023-03-23T07:12:11.433Z,1001.1
2023-03-23T07:13:56.468Z,1001.27
2023-03-23T07:15:41.554Z,1001.29
2023-03-23T07:17:26.414Z,1001.23
2023-03-23T07:19:11.526Z,1001.29
2023-03-23T07:20:56.452Z,1001.26
2023-03-23T07:22:41.439Z,1001.25
2023-03-23T07:24:26.504Z,1001.18
2023-03-23T07:26:11.436Z,1001.2
2023-03-23T07:27:56.711Z,1001.18
2023-03-23T07:29:41.512Z,1001.14
2023-03-23T07:31:26.454Z,1001.16
2023-03-23T07:33:11.456Z,1001.18
2023-03-23T07:34:56.520Z,1001.23
2023-03-23T07:36:41.473Z,1001.17
2023-03-23T07:38:26.463Z,1001.16
2023-03-23T07:40:11.510Z,1001.22
2023-03-23T07:41:56.481Z,1001.2
2023-03-23T07:43:41.455Z,1001.24
2023-03-23T07:45:26.509Z,1001.31
2023-03-23T07:47:11.801Z,1001.28
2023-03-23T07:48:56.483Z,1001.33
2023-03-23T07:50:41.577Z,1001.36
2023-03-23T07:52:26.492Z,1001.3
2023-03-23T07:54:11.483Z,1001.31
2023-03-23T07:55:56.528Z,1001.29
2023-03-23T07:57:41.483Z,1001.33
2023-03-23T07:59:26.484Z,1001.15
2023-03-23T08:01:11.537Z,1001.24
2023-03-23T08:02:56.508Z,1001.19
2023-03-23T08:04:41.506Z,1001.2
2023-03-23T08:06:26.591Z,1001.24
2023-03-23T08:08:11.506Z,1001.31
2023-03-23T08:09:56.539Z,1001.35
2023-03-23T08:11:41.511Z,1001.32
2023-03-23T08:13:26.832Z,1001.31
2023-03-23T08:15:12.163Z,1001.32
2023-03-23T08:16:56.546Z,1001.38
2023-03-23T08:18:41.820Z,1001.36
2023-03-23T08:20:26.517Z,1001.31
2023-03-23T08:22:11.567Z,1001.4
2023-03-23T08:23:56.554Z,1001.31
2023-03-23T08:25:41.588Z,1001.32
2023-03-23T08:27:26.677Z,1001.41
2023-03-23T08:29:11.857Z,1001.36
2023-03-23T08:30:56.552Z,1001.3
2023-03-23T08:32:41.544Z,1001.38
2023-03-23T08:34:26.539Z,1001.29
2023-03-23T08:36:11.542Z,1001.55
2023-03-23T08:37:56.884Z,1001.41
2023-03-23T08:39:41.585Z,1001.42
2023-03-23T08:41:26.552Z,1001.53
2023-03-23T08:43:11.581Z,1001.3
2023-03-23T08:44:56.864Z,1001.43
2023-03-23T08:46:41.582Z,1001.42
2023-03-23T08:48:26.618Z,1001.43
2023-03-23T08:50:11.566Z,1001.43
2023-03-23T08:51:56.598Z,1001.51
2023-03-23T08:53:41.626Z,1001.44
2023-03-23T08:55:26.571Z,1001.49
2023-03-23T08:57:11.602Z,1001.49
2023-03-23T08:58:56.631Z,1001.52
2023-03-23T09:00:45.775Z,1001.5
2023-03-23T09:02:26.621Z,1001.46
2023-03-23T09:04:11.624Z,1001.52
2023-03-23T09:05:56.559Z,1001.54
2023-03-23T09:07:41.608Z,1001.49
2023-03-23T09:09:26.677Z,1001.56
2023-03-23T09:11:11.612Z,1001.6
2023-03-23T09:12:56.613Z,1001.66
2023-03-23T09:14:41.649Z,1001.63
2023-03-23T09:16:26.595Z,1001.68
2023-03-23T09:18:11.611Z,1001.6
2023-03-23T09:19:56.700Z,1001.59
2023-03-23T09:21:41.634Z,1001.65
2023-03-23T09:23:26.602Z,1001.62
2023-03-23T09:25:12.391Z,1001.72
2023-03-23T09:26:56.607Z,1001.8
2023-03-23T09:28:41.631Z,1001.89
2023-03-23T09:30:27.338Z,1002.1
2023-03-23T09:32:11.623Z,1002.35
2023-03-23T09:33:56.649Z,1002.41
2023-03-23T09:35:41.804Z,1002.56
2023-03-23T09:37:26.673Z,1002.39
2023-03-23T09:39:11.647Z,1002.34
2023-03-23T09:40:56.686Z,1002.43
2023-03-23T09:42:41.643Z,1002.58
2023-03-23T09:44:26.701Z,1002.64
2023-03-23T09:46:11.689Z,1002.56
2023-03-23T09:47:56.698Z,1002.63
2023-03-23T09:49:41.727Z,1002.68
2023-03-23T09:51:26.666Z,1002.58
2023-03-23T09:53:11.703Z,1002.49
2023-03-23T09:54:56.658Z,1002.65
2023-03-23T09:56:41.762Z,1002.78
2023-03-23T09:58:26.680Z,1002.64
2023-03-23T10:00:11.705Z,1002.59
2023-03-23T10:01:56.745Z,1002.49
2023-03-23T10:03:41.683Z,1002.57
2023-03-23T10:05:26.757Z,1002.68
2023-03-23T10:07:11.726Z,1002.69
2023-03-23T10:08:57.495Z,1002.75
2023-03-23T10:10:41.714Z,1002.79
2023-03-23T10:12:26.742Z,1002.75
2023-03-23T10:14:11.692Z,1002.79
2023-03-23T10:15:56.714Z,1002.76
2023-03-23T10:17:42.100Z,1002.81
2023-03-23T10:19:26.684Z,1002.85
2023-03-23T10:21:11.728Z,1002.85
2023-03-23T10:22:56.746Z,1002.85
2023-03-23T10:24:41.721Z,1002.83
2023-03-23T10:26:26.699Z,1002.85
2023-03-23T10:28:11.807Z,1002.86
2023-03-23T10:29:56.726Z,1002.81
2023-03-23T10:31:41.760Z,1002.84
2023-03-23T10:33:26.794Z,1002.8
2023-03-23T10:35:11.716Z,1002.78
2023-03-23T10:36:56.737Z,1002.8
2023-03-23T10:38:41.808Z,1002.89
2023-03-23T10:40:26.752Z,1002.74
2023-03-23T10:42:11.746Z,1002.85
2023-03-23T10:43:56.805Z,1002.78
2023-03-23T10:45:46.271Z,1002.81
2023-03-23T10:47:26.774Z,1002.73
2023-03-23T10:49:11.797Z,1002.91
2023-03-23T10:50:56.767Z,1002.88
2023-03-23T10:52:41.771Z,1002.74
2023-03-23T10:54:26.805Z,1002.88
2023-03-23T10:56:11.753Z,1002.87
2023-03-23T10:57:56.798Z,1002.9
2023-03-23T10:59:41.815Z,1002.89
2023-03-23T11:01:26.752Z,1002.8
2023-03-23T11:03:11.804Z,1002.88
2023-03-23T11:04:57.024Z,1002.88
2023-03-23T11:06:41.753Z,1002.88
2023-03-23T11:08:27.079Z,1002.86
2023-03-23T11:10:11.822Z,1002.89
2023-03-23T11:12:02.065Z,1002.8
2023-03-23T11:13:41.767Z,1002.87
2023-03-23T11:15:26.889Z,1002.88
2023-03-23T11:17:15.770Z,1002.86
2023-03-23T11:18:56.780Z,1002.84
2023-03-23T11:20:41.802Z,1002.84
2023-03-23T11:22:27.097Z,1002.74
2023-03-23T11:24:12.103Z,1002.88
2023-03-23T11:25:56.848Z,1002.83
2023-03-23T11:27:41.782Z,1002.87
2023-03-23T11:29:26.823Z,1002.82
2023-03-23T11:31:11.857Z,1002.76
2023-03-23T11:32:56.816Z,1002.68
2023-03-23T11:34:41.795Z,1002.67
2023-03-23T11:36:26.824Z,1002.51
2023-03-23T11:38:11.776Z,1002.53
2023-03-23T11:39:56.804Z,1002.62
2023-03-23T11:41:41.858Z,1002.58
2023-03-23T11:43:26.818Z,1002.57
2023-03-23T11:45:11.814Z,1002.69
2023-03-23T11:46:56.871Z,1002.66
2023-03-23T11:48:41.817Z,1002.58
2023-03-23T11:50:26.801Z,1002.67
2023-03-23T11:52:12.169Z,1002.73
2023-03-23T11:53:57.146Z,1002.72
2023-03-23T11:55:41.948Z,1002.64
2023-03-23T11:57:26.895Z,1002.66
2023-03-23T11:59:11.861Z,1002.67
2023-03-23T12:00:56.880Z,1002.82
2023-03-23T12:02:41.948Z,1002.72
2023-03-23T12:04:26.885Z,1002.82
2023-03-23T12:06:11.867Z,1002.63
2023-03-23T12:07:56.863Z,1002.53
2023-03-23T12:09:41.878Z,1002.66
2023-03-23T12:11:26.886Z,1002.56
2023-03-23T12:13:13.800Z,1002.69
2023-03-23T12:14:56.855Z,1002.7
2023-03-23T12:16:41.883Z,1002.64
2023-03-23T12:18:27.220Z,1002.81
2023-03-23T12:20:11.890Z,1002.84
2023-03-23T12:21:57.168Z,1002.89
2023-03-23T12:23:41.910Z,1002.83
2023-03-23T12:25:26.884Z,1002.77
2023-03-23T12:27:11.897Z,1002.79
2023-03-23T12:28:56.933Z,1002.73
2023-03-23T12:30:41.885Z,1002.75
2023-03-23T12:32:26.888Z,1002.67
2023-03-23T12:34:11.971Z,1002.64
2023-03-23T12:35:56.927Z,1002.67
2023-03-23T12:37:41.905Z,1002.58
2023-03-23T12:39:26.963Z,1002.73
2023-03-23T12:41:11.918Z,1002.72
2023-03-23T12:42:56.937Z,1002.83
2023-03-23T12:44:41.974Z,1002.73
2023-03-23T12:46:26.926Z,1002.84
2023-03-23T12:48:11.913Z,1002.78
2023-03-23T12:49:56.990Z,1002.69
2023-03-23T12:51:41.925Z,1002.69
2023-03-23T12:53:26.948Z,1002.58
2023-03-23T12:55:12.000Z,1002.66
2023-03-23T12:56:56.952Z,1002.55
2023-03-23T12:58:41.928Z,1002.56
2023-03-23T13:00:26.971Z,1002.64
2023-03-23T13:02:11.935Z,1002.55
2023-03-23T13:03:56.939Z,1002.53
2023-03-23T13:05:42.501Z,1002.52
2023-03-23T13:07:26.934Z,1002.63
2023-03-23T13:09:11.967Z,1002.58
2023-03-23T13:10:56.993Z,1002.4
2023-03-23T13:12:41.941Z,1002.41
2023-03-23T13:14:26.940Z,1002.47
2023-03-23T13:16:12.346Z,1002.46
2023-03-23T13:17:56.960Z,1002.21
2023-03-23T13:19:41.948Z,1002.41
2023-03-23T13:21:27.015Z,1002.27
2023-03-23T13:23:11.946Z,1002.28
2023-03-23T13:24:56.984Z,1002.32
2023-03-23T13:26:41.988Z,1002.3
2023-03-23T13:28:26.956Z,1002.41
2023-03-23T13:30:11.972Z,1002.32
2023-03-23T13:31:57.004Z,1002.28
2023-03-23T13:33:41.973Z,1002.39
2023-03-23T13:35:26.987Z,1002.3
2023-03-23T13:37:12.054Z,1002.39
2023-03-23T13:38:57.002Z,1002.41
2023-03-23T13:40:42.163Z,1002.42
2023-03-23T13:42:27.053Z,1002.42
2023-03-23T13:44:11.985Z,1002.43
2023-03-23T13:45:57.001Z,1002.37
2023-03-23T13:47:42.313Z,1002.32
2023-03-23T13:49:26.971Z,1002.45
2023-03-23T13:51:11.994Z,1002.5
2023-03-23T13:52:57.037Z,1002.7
2023-03-23T13:54:42.017Z,1002.62
2023-03-23T13:56:27.007Z,1002.59
2023-03-23T13:58:12.030Z,1002.63
2023-03-23T13:59:57.033Z,1002.49
2023-03-23T14:01:41.992Z,1002.45
2023-03-23T14:03:27.031Z,1002.5
2023-03-23T14:05:12.008Z,1002.51
2023-03-23T14:06:57.009Z,1002.38
2023-03-23T14:08:42.086Z,1002.31
2023-03-23T14:10:26.992Z,1002.33
2023-03-23T14:12:12.032Z,1002.37
2023-03-23T14:13:57.041Z,1002.39
2023-03-23T14:15:42.021Z,1002.24
2023-03-23T14:17:27.092Z,1002.26
2023-03-23T14:19:12.088Z,1002.2
2023-03-23T14:20:57.020Z,1002.17
2023-03-23T14:22:42.041Z,1002.28
2023-03-23T14:24:27.078Z,1002.32
2023-03-23T14:26:12.024Z,1002.37
2023-03-23T14:27:57.031Z,1002.15
2023-03-23T14:29:42.068Z,1002.24
2023-03-23T14:31:27.010Z,1002.31
2023-03-23T14:33:12.040Z,1002.2
2023-03-23T14:34:57.064Z,1002.3
2023-03-23T14:36:42.041Z,1002.29
2023-03-23T14:38:27.052Z,1002.29
2023-03-23T14:40:12.374Z,1002.19
2023-03-23T14:41:57.048Z,1002.2
2023-03-23T14:43:42.082Z,1002.15
2023-03-23T14:45:27.063Z,1002.22
2023-03-23T14:47:12.079Z,1002.23
2023-03-23T14:48:57.196Z,1002.14
2023-03-23T14:50:42.074Z,1002.19
2023-03-23T14:52:27.378Z,1002.22
2023-03-23T14:54:12.089Z,1002.2
2023-03-23T14:55:57.087Z,1002.15
2023-03-23T14:57:42.061Z,1002.11
2023-03-23T14:59:27.145Z,1002.08
2023-03-23T15:01:12.085Z,1002.03
2023-03-23T15:02:57.065Z,1002.02
2023-03-23T15:04:42.130Z,1001.95
2023-03-23T15:06:27.371Z,1001.84
2023-03-23T15:08:12.099Z,1001.93
2023-03-23T15:09:57.190Z,1001.89
2023-03-23T15:11:42.116Z,1001.79
2023-03-23T15:13:27.078Z,1001.86
2023-03-23T15:15:12.147Z,1001.6
2023-03-23T15:16:57.077Z,1001.59
2023-03-23T15:18:42.114Z,1001.6
2023-03-23T15:20:27.110Z,1001.54
2023-03-23T15:22:12.096Z,1001.43
2023-03-23T15:23:57.116Z,1001.32
2023-03-23T15:25:42.321Z,1001.43
2023-03-23T15:27:27.136Z,1001.34
2023-03-23T15:29:12.140Z,1001.45
2023-03-23T15:30:57.133Z,1001.55
2023-03-23T15:32:42.120Z,1001.68
2023-03-23T15:34:27.432Z,1001.67
2023-03-23T15:36:12.178Z,1001.72
2023-03-23T15:37:57.150Z,1001.79
2023-03-23T15:39:42.138Z,1001.72
2023-03-23T15:41:27.174Z,1001.63
2023-03-23T15:43:12.182Z,1001.63
2023-03-23T15:44:57.164Z,1001.67
2023-03-23T15:46:42.188Z,1001.68
2023-03-23T15:48:27.173Z,1001.65
2023-03-23T15:50:12.172Z,1001.47
2023-03-23T15:51:57.161Z,1001.35
2023-03-23T15:53:42.155Z,1001.51
2023-03-23T15:55:27.217Z,1001.49
2023-03-23T15:57:12.206Z,1001.48
2023-03-23T15:58:57.221Z,1001.39
2023-03-23T16:00:42.190Z,1001.44
2023-03-23T16:02:27.240Z,1001.45
2023-03-23T16:04:12.193Z,1001.28
2023-03-23T16:05:57.185Z,1001.32
2023-03-23T16:07:42.530Z,1001.31
2023-03-23T16:09:27.236Z,1001.29
2023-03-23T16:11:12.189Z,1001.33
2023-03-23T16:12:57.205Z,1001.33
2023-03-23T16:14:42.214Z,1001.42
2023-03-23T16:16:27.316Z,1001.47
2023-03-23T16:18:12.252Z,1001.48
2023-03-23T16:19:57.210Z,1001.53
2023-03-23T16:21:42.197Z,1001.68
2023-03-23T16:23:27.228Z,1001.59
2023-03-23T16:25:12.190Z,1001.48
2023-03-23T16:26:57.225Z,1001.43
2023-03-23T16:28:42.275Z,1001.27
2023-03-23T16:30:27.230Z,1001.28
2023-03-23T16:32:12.215Z,1001.35
2023-03-23T16:33:57.243Z,1001.37
2023-03-23T16:35:42.438Z,1001.41
2023-03-23T16:37:27.237Z,1001.4
2023-03-23T16:39:12.292Z,1001.46
2023-03-23T16:40:57.222Z,1001.38
2023-03-23T16:42:42.206Z,1001.47
2023-03-23T16:44:27.323Z,1001.5
2023-03-23T16:46:12.299Z,1001.49
2023-03-23T16:47:57.267Z,1001.57
2023-03-23T16:49:42.330Z,1001.56
2023-03-23T16:51:27.246Z,1001.58
2023-03-23T16:53:12.260Z,1001.5
2023-03-23T16:54:57.292Z,1001.56
2023-03-23T16:56:42.310Z,1001.7
2023-03-23T16:58:27.266Z,1001.65
2023-03-23T17:00:12.253Z,1001.57
2023-03-23T17:01:57.295Z,1001.62
2023-03-23T17:03:43.792Z,1001.64
2023-03-23T17:05:27.308Z,1001.64
2023-03-23T17:07:12.545Z,1001.65
2023-03-23T17:08:57.293Z,1001.74
2023-03-23T17:10:42.309Z,1001.71
2023-03-23T17:12:27.274Z,1001.79
2023-03-23T17:14:12.282Z,1001.76
2023-03-23T17:15:57.393Z,1001.72
2023-03-23T17:17:42.306Z,1001.71
2023-03-23T17:19:27.278Z,1001.79
2023-03-23T17:21:12.599Z,1001.75
2023-03-23T17:22:57.263Z,1001.8
2023-03-23T17:24:42.284Z,1001.8
2023-03-23T17:26:27.304Z,1001.81
2023-03-23T17:28:12.267Z,1001.82
2023-03-23T17:29:57.615Z,1001.75
2023-03-23T17:31:42.373Z,1001.74
2023-03-23T17:33:27.289Z,1001.73
2023-03-23T17:35:12.333Z,1001.64
2023-03-23T17:36:57.317Z,1001.75
2023-03-23T17:38:42.272Z,1001.71
2023-03-23T17:40:27.289Z,1001.69
2023-03-23T17:42:12.364Z,1001.69
2023-03-23T17:43:57.319Z,1001.7
2023-03-23T17:45:44.430Z,1001.76
2023-03-23T17:47:27.358Z,1001.75
2023-03-23T17:49:12.317Z,1001.71
2023-03-23T17:50:57.346Z,1001.71
2023-03-23T17:52:42.341Z,1001.72
2023-03-23T17:54:27.326Z,1001.64
2023-03-23T17:56:12.302Z,1001.64
2023-03-23T17:57:57.347Z,1001.63
2023-03-23T17:59:42.329Z,1001.62
2023-03-23T18:01:27.360Z,1001.56
2023-03-23T18:03:12.413Z,1001.51
2023-03-23T18:04:57.404Z,1001.49
2023-03-23T18:06:42.323Z,1001.43
2023-03-23T18:08:27.380Z,1001.54
2023-03-23T18:10:12.340Z,1001.46
2023-03-23T18:11:57.334Z,1001.43
2023-03-23T18:13:42.417Z,1001.4
2023-03-23T18:15:28.158Z,1001.4
2023-03-23T18:17:12.335Z,1001.4
2023-03-23T18:18:57.375Z,1001.42
2023-03-23T18:20:42.359Z,1001.4
2023-03-23T18:22:27.354Z,1001.34
2023-03-23T18:24:12.363Z,1001.38
2023-03-23T18:25:57.344Z,1001.36
2023-03-23T18:27:42.333Z,1001.32
2023-03-23T18:29:27.414Z,1001.31
2023-03-23T18:31:12.332Z,1001.36
2023-03-23T18:32:57.376Z,1001.38
2023-03-23T18:34:42.447Z,1001.41
2023-03-23T18:36:27.379Z,1001.36
2023-03-23T18:38:12.352Z,1001.33
2023-03-23T18:39:57.411Z,1001.31
2023-03-23T18:41:42.355Z,1001.28
2023-03-23T18:43:27.367Z,1001.4
2023-03-23T18:45:12.459Z,1001.29
2023-03-23T18:46:57.675Z,1001.26
2023-03-23T18:48:42.361Z,1001.38
2023-03-23T18:50:27.428Z,1001.25
2023-03-23T18:52:12.406Z,1001.18
2023-03-23T18:53:57.376Z,1001.03
2023-03-23T18:55:42.553Z,1001.04
2023-03-23T18:57:27.382Z,1001.1
2023-03-23T18:59:12.382Z,1001.02
2023-03-23T19:00:57.504Z,1001.04
2023-03-23T19:02:42.755Z,1000.95
2023-03-23T19:04:27.401Z,1001.02
2023-03-23T19:06:12.425Z,1001.03
2023-03-23T19:07:57.456Z,1001.1
2023-03-23T19:09:42.399Z,1000.93
2023-03-23T19:11:27.493Z,1001.03
2023-03-23T19:13:12.438Z,1001.01
2023-03-23T19:14:57.418Z,1000.95
2023-03-23T19:16:42.465Z,1001.06
2023-03-23T19:18:27.455Z,1000.99
2023-03-23T19:20:15.933Z,1000.98
2023-03-23T19:21:57.471Z,1000.93
2023-03-23T19:23:42.467Z,1000.93
2023-03-23T19:25:27.453Z,1000.94
2023-03-23T19:27:12.469Z,1000.87
2023-03-23T19:29:19.165Z,1000.85
2023-03-23T19:30:42.469Z,1000.77
2023-03-23T19:32:27.576Z,1000.7
2023-03-23T19:34:12.469Z,1000.76
2023-03-23T19:36:06.605Z,1000.7
2023-03-23T19:37:42.811Z,1000.63
2023-03-23T19:39:27.490Z,1000.6
2023-03-23T19:41:12.468Z,1000.54
2023-03-23T19:42:57.515Z,1000.57
2023-03-23T19:44:42.470Z,1000.59
2023-03-23T19:46:30.174Z,1000.52
2023-03-23T19:48:12.513Z,1000.43
2023-03-23T19:49:57.490Z,1000.44
2023-03-23T19:51:42.488Z,1000.48
2023-03-23T19:53:27.506Z,1000.4
2023-03-23T19:55:12.906Z,1000.41
2023-03-23T19:56:57.522Z,1000.36
2023-03-23T19:58:42.539Z,1000.43
2023-03-23T20:00:28.511Z,1000.44
2023-03-23T20:02:12.588Z,1000.32
2023-03-23T20:03:59.936Z,1000.34
2023-03-23T20:05:42.637Z,1000.34
2023-03-23T20:07:27.492Z,1000.28
2023-03-23T20:09:12.856Z,1000.32
2023-03-23T20:10:57.530Z,1000.24
2023-03-23T20:12:42.816Z,1000.25
2023-03-23T20:14:27.541Z,1000.22
2023-03-23T20:16:12.495Z,1000.17
2023-03-23T20:17:58.249Z,1000.13
2023-03-23T20:19:43.004Z,1000.18
2023-03-23T20:21:27.523Z,1000.15
2023-03-23T20:23:12.546Z,1000.09
2023-03-23T20:24:57.859Z,1000.03
2023-03-23T20:26:42.546Z,1000.02
2023-03-23T20:28:28.163Z,1000.04
2023-03-23T20:30:12.582Z,999.99
2023-03-23T20:31:57.556Z,999.96
2023-03-23T20:33:42.589Z,999.81
2023-03-23T20:35:27.575Z,999.84
2023-03-23T20:37:12.556Z,999.83
2023-03-23T20:38:57.605Z,999.83
2023-03-23T20:40:42.609Z,999.87
2023-03-23T20:42:27.723Z,999.76
2023-03-23T20:44:12.572Z,999.9
2023-03-23T20:45:57.592Z,999.87
2023-03-23T20:47:42.590Z,999.88
2023-03-23T20:49:27.578Z,999.85
2023-03-23T20:51:12.622Z,999.87
2023-03-23T20:52:57.559Z,999.98
2023-03-23T20:54:42.562Z,999.91
2023-03-23T20:56:27.645Z,999.93
2023-03-23T20:58:12.603Z,999.86
2023-03-23T20:59:57.577Z,999.9
2023-03-23T21:01:42.671Z,999.82
2023-03-23T21:03:27.574Z,999.88
2023-03-23T21:05:12.618Z,999.88
2023-03-23T21:06:57.629Z,999.92
2023-03-23T21:08:42.596Z,999.89
2023-03-23T21:10:27.611Z,999.91
2023-03-23T21:12:12.623Z,999.91
2023-03-23T21:13:57.677Z,999.79
2023-03-23T21:15:42.755Z,999.87
2023-03-23T21:17:27.669Z,999.9